Airfield :
LOGIN :

Register | Disclaimer

   EN    FR    IT 

 










Legend :    VFR   Marginal VFR   IFR   Intensive IFR   Very Intensive IFR
Visi :
Ceiling :
>= 8 km
>= 3000ft
5 to 8 km
1000 to 3000 ft
1500m to 5 km
500 to 1000 ft
800 to 1500m
200 to 500 ft
< 800m
< 200 ft
Symbols :   Thunderstorms  Fog  Heavy snow  Heavy precipitations  Wind > 20 kt
SIGMETs :     Misc.  Thunderstorms  Icing  Turbulence  Mountain Waves  Volcanic Ashes






- Airport Elevation : 935 ft


EBFS - Florennes

CURRENT METAR :
  • 261055Z 26007KT 1500 BR BKN003 BKN004 M00/M00 Q1033 AMB YLO TEMPO AMB

EXPIRED METARs :
  • 261025Z 26006KT 1200 BR BKN003 BKN004 M00/M00 Q1033 AMB YLO TEMPO AMB
  • 260955Z 26006KT 1500 BR BKN002 BKN003 M00/M00 Q1033 AMB YLO TEMPO AMB
  • 260953Z 25005KT 1500 BR BKN002 BKN003 M00/M00 Q1033 AMB YLO TEMPO AMB
  • 260925Z 27005KT 1200 BR OVC002 M00/M00 Q1033 AMB AMB TEMPO RED
  • 260913Z 25005KT 1200 BR OVC002 M01/M01 Q1033 AMB AMB TEMPO RED
  • 260855Z 25005KT 0700 FZFG FZDZ OVC002 M01/M01 Q1033 RED AMB TEMPO RED
  • 260825Z 22004KT 0700 FZFG FZDZ OVC002 M01/M01 Q1032 RED AMB TEMPO RED
  • 260816Z 23003KT 0700 FZDZ OVC002 M01/M01 Q1032 RED AMB TEMPO RED
  • 260755Z 24003KT 0700 FZFG OVC002 M01/M01 Q1033 RED AMB TEMPO RED

TAF TAF EBFS
Valid from the 26 at 10:00 until the 26 at 19:00 UTC


260841Z 2610/2619 27005KT 3000 BR BKN003 BKN005
BECMG 2612/2614 5000 BR SCT007 BKN010



MET'MAP, your aeronautical weather chart ! - Copyright ORBIFLY December 2007 - Disclaimer

ORBIFLY MET'MAP TEAM :

Programming & Development : Alexandra Zaïnal
Original concept : Baudouin d'Aumeries
Technical & hardware support : Manuel Goepfert
Assistance : Marc-Olivier Méhu

Contact : metmap@orbifly.com




SOURCES & CREDITS :

   NOAA